Time;durP1;ratioP1;P1;durP2;ratioP2;P2;SDS_P1;SDS_P2;PMS_P1;PMS_P2;Temp;Humidity;BMP_temperature;BMP_pressure;BME280_temperature;BME280_humidity;BME280_pressure;Samples;Min_cycle;Max_cycle;Signal;HPM_P1;HPM_P2
2022/04/13 00:01:41;;;;;;;0.30;0.30;;;15.00;99.90;;;;;;4989982;28;20223;-84
2022/04/13 00:04:06;;;;;;;0.50;0.40;;;14.90;99.90;;;;;;4989696;28;20234;-84
2022/04/13 00:06:32;;;;;;;0.37;0.37;;;15.00;99.90;;;;;;4988563;28;20763;-84
2022/04/13 00:08:58;;;;;;;0.20;0.20;;;15.00;99.90;;;;;;4989432;28;20252;-84
2022/04/13 00:11:23;;;;;;;0.13;0.13;;;15.10;99.90;;;;;;4988698;28;20381;-84
2022/04/13 00:13:49;;;;;;;0.20;0.20;;;15.10;99.90;;;;;;4987903;28;20191;-84
2022/04/13 00:16:14;;;;;;;0.40;0.40;;;15.10;99.90;;;;;;4989611;28;20308;-84
2022/04/13 00:18:40;;;;;;;0.20;0.20;;;15.00;99.90;;;;;;4988671;28;20186;-84
2022/04/13 00:21:06;;;;;;;0.20;0.20;;;14.90;99.90;;;;;;4989443;28;20190;-84
2022/04/13 00:23:31;;;;;;;0.40;0.40;;;14.80;99.90;;;;;;5004225;28;20540;-84
2022/04/13 00:26:00;;;;;;;1.40;0.30;;;14.70;99.90;;;;;;4988124;28;20556;-84
2022/04/13 00:28:25;;;;;;;0.20;0.20;;;14.60;99.90;;;;;;4987597;28;20181;-84
2022/04/13 00:30:51;;;;;;;0.20;0.20;;;14.60;99.90;;;;;;4988110;28;20211;-84
2022/04/13 00:33:17;;;;;;;0.20;0.20;;;14.60;99.90;;;;;;4987489;28;20218;-84
2022/04/13 00:35:42;;;;;;;0.20;0.20;;;14.50;99.90;;;;;;4988622;28;20202;-84
2022/04/13 00:38:08;;;;;;;0.10;0.10;;;14.50;99.90;;;;;;4987896;28;20649;-84
2022/04/13 00:40:37;;;;;;;0.27;0.27;;;14.30;99.90;;;;;;4989324;28;21200;-84
2022/04/13 00:43:03;;;;;;;0.30;0.20;;;14.20;99.90;;;;;;4987904;28;20200;-84
2022/04/13 00:45:28;;;;;;;0.13;0.13;;;14.10;99.90;;;;;;4987748;28;20184;-84
2022/04/13 00:47:54;;;;;;;0.23;0.23;;;14.10;99.90;;;;;;4988915;28;20296;-84
2022/04/13 00:50:21;;;;;;;0.20;0.20;;;14.10;99.90;;;;;;4989086;28;20194;-84
2022/04/13 00:52:48;;;;;;;0.93;0.30;;;14.10;99.90;;;;;;4988602;28;20215;-84
2022/04/13 00:55:15;;;;;;;2.80;0.33;;;14.10;99.90;;;;;;4988192;28;20191;-84
2022/04/13 00:57:42;;;;;;;0.30;0.20;;;14.10;99.90;;;;;;4988471;28;20215;-84
2022/04/13 01:00:10;;;;;;;0.20;0.20;;;14.00;99.90;;;;;;4987654;28;20273;-84
2022/04/13 01:02:37;;;;;;;0.73;0.20;;;13.90;99.90;;;;;;4986798;28;20200;-84
2022/04/13 01:05:05;;;;;;;0.10;0.10;;;13.90;99.90;;;;;;4980115;28;20190;-84
2022/04/13 01:07:32;;;;;;;0.50;0.50;;;13.90;99.90;;;;;;4987816;28;20236;-84
2022/04/13 01:10:00;;;;;;;0.10;0.10;;;13.80;99.90;;;;;;4986860;28;20206;-84
2022/04/13 01:12:26;;;;;;;0.13;0.13;;;13.90;99.90;;;;;;4987792;28;20208;-84
2022/04/13 01:14:52;;;;;;;0.20;0.20;;;13.80;99.90;;;;;;4995747;28;20208;-84
2022/04/13 01:17:18;;;;;;;0.10;0.10;;;13.90;99.90;;;;;;4986440;28;20217;-84
2022/04/13 01:19:46;;;;;;;0.10;0.10;;;14.00;99.90;;;;;;4987748;28;20206;-84
2022/04/13 01:22:25;;;;;;;0.90;0.90;;;14.00;99.90;;;;;;4985938;28;20666;-84
2022/04/13 01:24:51;;;;;;;0.10;0.10;;;14.10;99.90;;;;;;4986752;28;20194;-84
2022/04/13 01:27:17;;;;;;;0.10;0.10;;;14.10;99.90;;;;;;4986579;28;20356;-84
2022/04/13 01:29:44;;;;;;;0.20;0.20;;;14.10;99.90;;;;;;4986895;28;20274;-84
2022/04/13 01:32:14;;;;;;;1.20;0.23;;;14.10;99.90;;;;;;5002766;28;20687;-84
2022/04/13 01:34:50;;;;;;;0.43;0.43;;;14.10;99.90;;;;;;4985127;28;20234;-84
2022/04/13 01:37:17;;;;;;;0.20;0.20;;;14.00;99.90;;;;;;4987722;28;20696;-84
2022/04/13 01:39:43;;;;;;;1.93;1.07;;;13.90;99.90;;;;;;4987584;28;20700;-84
2022/04/13 01:42:09;;;;;;;0.23;0.23;;;13.70;99.90;;;;;;4985540;28;20191;-84
2022/04/13 01:44:35;;;;;;;0.47;0.47;;;13.50;99.90;;;;;;4985635;28;20196;-84
2022/04/13 01:47:00;;;;;;;0.23;0.20;;;13.50;99.90;;;;;;4984803;28;20241;-84
2022/04/13 01:49:26;;;;;;;0.30;0.30;;;13.40;99.90;;;;;;4987446;28;20216;-84
2022/04/13 01:51:51;;;;;;;0.73;0.20;;;13.50;99.90;;;;;;4987676;28;20696;-84
2022/04/13 01:54:17;;;;;;;0.10;0.10;;;13.60;99.90;;;;;;4987272;28;20620;-84
2022/04/13 01:56:42;;;;;;;0.23;0.23;;;13.70;99.90;;;;;;4986333;28;20203;-84
2022/04/13 01:59:08;;;;;;;0.20;0.20;;;13.80;99.90;;;;;;4985620;28;20177;-83
2022/04/13 02:01:35;;;;;;;0.40;0.40;;;13.80;99.90;;;;;;4986420;28;20624;-84
2022/04/13 02:04:01;;;;;;;0.10;0.10;;;13.80;99.90;;;;;;4986042;28;20316;-84
2022/04/13 02:06:26;;;;;;;1.27;0.50;;;13.80;99.90;;;;;;4987372;28;20286;-84
2022/04/13 02:08:52;;;;;;;0.20;0.20;;;13.70;99.90;;;;;;4990616;28;20234;-84
2022/04/13 02:11:18;;;;;;;0.23;0.23;;;13.40;99.90;;;;;;4992009;28;20214;-84
2022/04/13 02:13:43;;;;;;;0.27;0.27;;;13.20;99.90;;;;;;4991086;28;20187;-84
2022/04/13 02:16:09;;;;;;;0.37;0.23;;;13.20;99.90;;;;;;4991682;28;20218;-84
2022/04/13 02:18:34;;;;;;;0.10;0.10;;;13.30;99.90;;;;;;4991270;28;20226;-84
2022/04/13 02:21:00;;;;;;;0.13;0.13;;;13.50;99.90;;;;;;4992382;28;20280;-83
2022/04/13 02:23:26;;;;;;;0.20;0.20;;;13.60;99.90;;;;;;4991113;28;20201;-84
2022/04/13 02:25:51;;;;;;;0.77;0.20;;;13.60;99.90;;;;;;4989884;28;20249;-84
2022/04/13 02:28:17;;;;;;;1.03;0.30;;;13.60;99.90;;;;;;4991284;28;20270;-84
2022/04/13 02:30:42;;;;;;;0.30;0.30;;;13.80;99.90;;;;;;4993990;28;20190;-84
2022/04/13 02:33:08;;;;;;;0.20;0.20;;;13.90;99.90;;;;;;4993973;28;20209;-84
2022/04/13 02:35:33;;;;;;;0.20;0.20;;;13.90;99.90;;;;;;4995509;28;20202;-84
2022/04/13 02:37:59;;;;;;;0.10;0.10;;;13.90;99.90;;;;;;4995241;28;20902;-84
2022/04/13 02:40:24;;;;;;;0.20;0.10;;;13.90;99.90;;;;;;4994202;28;20262;-84
2022/04/13 02:42:50;;;;;;;0.40;0.40;;;13.90;99.90;;;;;;4995449;28;20186;-84
2022/04/13 02:45:15;;;;;;;0.47;0.43;;;13.80;99.90;;;;;;4997100;28;20187;-84
2022/04/13 02:47:41;;;;;;;0.40;0.40;;;13.80;99.90;;;;;;4996366;28;20267;-84
2022/04/13 02:50:07;;;;;;;0.50;0.33;;;13.60;99.90;;;;;;4998108;28;20660;-84
2022/04/13 02:52:33;;;;;;;0.27;0.27;;;13.50;99.90;;;;;;4997049;28;20229;-82
2022/04/13 02:54:59;;;;;;;0.33;0.23;;;13.50;99.90;;;;;;4996280;28;20206;-84
2022/04/13 02:57:25;;;;;;;0.30;0.30;;;13.40;99.90;;;;;;4996068;28;20206;-84
2022/04/13 02:59:51;;;;;;;3.23;1.47;;;13.50;99.90;;;;;;4995686;28;20206;-84
2022/04/13 03:02:17;;;;;;;0.20;0.20;;;13.50;99.90;;;;;;4991889;28;20194;-83
2022/04/13 03:04:43;;;;;;;0.10;0.10;;;13.40;99.90;;;;;;5010393;28;20189;-83
2022/04/13 03:07:14;;;;;;;0.63;0.40;;;13.30;99.90;;;;;;4998286;28;20209;-84
2022/04/13 03:09:40;;;;;;;0.63;0.43;;;13.10;99.90;;;;;;4997426;28;20575;-83
2022/04/13 03:12:07;;;;;;;0.43;0.27;;;13.10;99.90;;;;;;4987987;28;20280;-84
2022/04/13 03:14:34;;;;;;;0.20;0.20;;;13.00;99.90;;;;;;4997180;28;20191;-84
2022/04/13 03:17:00;;;;;;;0.30;0.13;;;13.00;99.90;;;;;;4996643;28;20208;-83
2022/04/13 03:19:25;;;;;;;0.37;0.37;;;13.00;99.90;;;;;;4994072;28;20177;-84
2022/04/13 03:21:53;;;;;;;0.20;0.20;;;13.10;99.90;;;;;;4995825;28;20267;-83
2022/04/13 03:24:19;;;;;;;0.17;0.17;;;13.10;99.90;;;;;;4995155;28;20216;-84
2022/04/13 03:26:45;;;;;;;0.20;0.20;;;13.20;99.90;;;;;;4988974;28;20206;-83
2022/04/13 03:29:10;;;;;;;2.07;1.00;;;13.30;99.90;;;;;;4997278;28;20200;-84
2022/04/13 03:31:36;;;;;;;0.47;0.47;;;13.30;99.90;;;;;;4997110;28;20260;-84
2022/04/13 03:34:02;;;;;;;0.20;0.20;;;13.20;99.90;;;;;;4993661;28;20253;-83
2022/04/13 03:36:27;;;;;;;0.13;0.13;;;13.20;99.90;;;;;;4994684;28;20227;-83
2022/04/13 03:38:54;;;;;;;0.53;0.53;;;13.20;99.90;;;;;;4995932;28;20201;-83
2022/04/13 03:41:20;;;;;;;0.30;0.30;;;13.20;99.90;;;;;;4995527;28;20197;-84
2022/04/13 03:43:45;;;;;;;0.40;0.40;;;13.10;99.90;;;;;;4994331;28;20194;-83
2022/04/13 03:46:11;;;;;;;0.27;0.27;;;13.10;99.90;;;;;;4995061;28;20217;-84
2022/04/13 03:48:37;;;;;;;0.27;0.27;;;13.10;99.90;;;;;;4994658;28;20189;-83
2022/04/13 03:51:02;;;;;;;0.50;0.50;;;13.10;99.90;;;;;;4994456;28;20197;-84
2022/04/13 03:53:28;;;;;;;0.50;0.50;;;13.10;99.90;;;;;;4994773;28;20184;-84
2022/04/13 03:55:53;;;;;;;0.30;0.30;;;13.10;99.90;;;;;;4996264;28;20227;-84
2022/04/13 03:58:19;;;;;;;0.20;0.20;;;13.00;99.90;;;;;;4995228;28;20241;-83
2022/04/13 04:00:44;;;;;;;0.17;0.17;;;12.90;99.90;;;;;;4994366;28;20257;-83
2022/04/13 04:03:10;;;;;;;0.40;0.40;;;12.50;99.90;;;;;;4993410;28;20343;-84
2022/04/13 04:05:36;;;;;;;0.97;0.90;;;12.40;99.90;;;;;;4993474;28;20576;-84
2022/04/13 04:08:01;;;;;;;0.30;0.30;;;12.30;99.90;;;;;;4994888;28;20225;-84
2022/04/13 04:10:27;;;;;;;0.30;0.30;;;12.20;99.90;;;;;;4992623;28;20188;-83
2022/04/13 04:12:52;;;;;;;0.43;0.43;;;12.00;99.90;;;;;;4993094;28;20211;-84
2022/04/13 04:15:18;;;;;;;0.40;0.40;;;12.10;99.90;;;;;;4993648;28;20820;-84
2022/04/13 04:17:43;;;;;;;0.10;0.10;;;12.20;99.90;;;;;;4994817;28;20201;-83
2022/04/13 04:20:09;;;;;;;0.67;0.67;;;12.20;99.90;;;;;;4994922;28;20191;-83
2022/04/13 04:22:35;;;;;;;0.13;0.13;;;12.30;99.90;;;;;;4992156;28;20666;-84
2022/04/13 04:25:06;;;;;;;0.57;0.40;;;12.30;99.90;;;;;;4992445;28;20200;-84
2022/04/13 04:27:32;;;;;;;0.63;0.40;;;12.30;99.90;;;;;;5008421;28;20212;-83
2022/04/13 04:29:57;;;;;;;0.57;0.30;;;12.20;99.90;;;;;;4991554;28;20193;-84
2022/04/13 04:32:23;;;;;;;0.10;0.10;;;12.10;99.90;;;;;;4988373;28;20585;-84
2022/04/13 04:34:49;;;;;;;0.60;0.60;;;12.00;99.90;;;;;;4987891;28;20217;-84
2022/04/13 04:37:14;;;;;;;0.20;0.20;;;12.10;99.90;;;;;;4988342;28;20768;-84
2022/04/13 04:39:40;;;;;;;0.20;0.20;;;12.10;99.90;;;;;;4992176;28;20843;-83
2022/04/13 04:42:06;;;;;;;0.20;0.20;;;12.00;99.90;;;;;;4991131;28;20195;-84
2022/04/13 04:44:31;;;;;;;0.53;0.30;;;12.00;99.90;;;;;;4990335;28;20278;-84
2022/04/13 04:46:57;;;;;;;0.20;0.20;;;11.80;99.90;;;;;;4992532;28;20225;-83
2022/04/13 04:49:22;;;;;;;0.20;0.20;;;11.70;99.90;;;;;;4992558;28;20191;-84
2022/04/13 04:51:48;;;;;;;0.13;0.13;;;11.70;99.90;;;;;;4991546;28;20287;-83
2022/04/13 04:54:13;;;;;;;0.23;0.23;;;11.70;99.90;;;;;;4984414;28;20750;-83
2022/04/13 04:56:39;;;;;;;0.10;0.10;;;11.70;99.90;;;;;;4990976;28;20207;-83
2022/04/13 04:59:05;;;;;;;1.10;1.03;;;11.70;99.90;;;;;;4992194;28;20191;-84
2022/04/13 05:01:30;;;;;;;0.30;0.30;;;11.80;99.90;;;;;;4990828;28;20703;-83
2022/04/13 05:03:56;;;;;;;0.20;0.20;;;11.80;99.90;;;;;;4988573;28;20184;-83
2022/04/13 05:06:25;;;;;;;0.17;0.17;;;11.90;99.90;;;;;;4986358;28;21012;-85
2022/04/13 05:08:55;;;;;;;0.23;0.23;;;11.70;99.90;;;;;;4985967;28;20274;-84
2022/04/13 05:11:21;;;;;;;0.30;0.30;;;11.70;99.90;;;;;;4980206;28;20214;-83
2022/04/13 05:13:47;;;;;;;0.30;0.30;;;11.60;99.90;;;;;;4992730;28;20191;-83
2022/04/13 05:16:17;;;;;;;0.20;0.20;;;11.50;99.90;;;;;;4993456;28;20233;-83
2022/04/13 05:18:45;;;;;;;0.77;0.70;;;11.50;99.90;;;;;;4991195;28;20196;-83
2022/04/13 05:21:11;;;;;;;0.27;0.27;;;11.40;99.90;;;;;;4988967;28;20202;-84
2022/04/13 05:23:37;;;;;;;1.20;0.20;;;11.50;99.90;;;;;;4988120;28;20249;-84
2022/04/13 05:26:04;;;;;;;0.10;0.10;;;11.60;99.90;;;;;;4987807;28;20680;-81
2022/04/13 05:28:29;;;;;;;0.10;0.10;;;11.70;99.90;;;;;;4986678;28;20180;-83
2022/04/13 05:30:56;;;;;;;0.83;0.30;;;11.90;99.90;;;;;;4986146;28;20667;-84
2022/04/13 05:33:22;;;;;;;0.40;0.40;;;12.20;99.90;;;;;;5000231;28;20235;-84
2022/04/13 05:35:47;;;;;;;0.23;0.23;;;12.30;99.90;;;;;;4983970;28;20209;-84
2022/04/13 05:38:13;;;;;;;0.30;0.30;;;12.40;99.90;;;;;;4986896;28;20192;-83
2022/04/13 05:40:39;;;;;;;0.50;0.20;;;12.60;99.90;;;;;;4983955;28;20193;-84
2022/04/13 05:43:04;;;;;;;0.20;0.20;;;12.70;99.90;;;;;;4985075;28;20211;-84
2022/04/13 05:45:30;;;;;;;0.13;0.13;;;12.80;99.90;;;;;;4993489;28;21219;-84
2022/04/13 05:47:56;;;;;;;0.57;0.23;;;12.80;99.90;;;;;;4984634;28;20204;-84
2022/04/13 05:50:23;;;;;;;0.37;0.37;;;13.00;99.90;;;;;;4984327;28;20269;-84
2022/04/13 05:52:48;;;;;;;0.30;0.30;;;13.00;99.90;;;;;;4977990;28;20216;-85
2022/04/13 05:55:14;;;;;;;0.47;0.43;;;13.20;99.90;;;;;;4985128;28;20192;-84
2022/04/13 05:57:39;;;;;;;0.13;0.13;;;13.30;99.90;;;;;;4985231;28;20217;-83
2022/04/13 06:00:07;;;;;;;0.40;0.40;;;13.30;99.90;;;;;;4990566;28;20198;-83
2022/04/13 06:02:34;;;;;;;0.70;0.70;;;13.30;99.90;;;;;;4987240;28;20208;-83
2022/04/13 06:05:00;;;;;;;0.23;0.23;;;13.40;99.90;;;;;;4988849;28;20204;-83
2022/04/13 06:07:25;;;;;;;1.80;1.70;;;13.40;99.90;;;;;;4991525;28;20211;-83
2022/04/13 06:09:51;;;;;;;0.23;0.23;;;13.50;99.90;;;;;;4987940;28;20218;-83
2022/04/13 06:12:23;;;;;;;0.10;0.10;;;13.70;99.90;;;;;;4989676;28;20264;-83
2022/04/13 06:14:49;;;;;;;0.30;0.30;;;13.80;99.90;;;;;;4985913;28;20197;-83
2022/04/13 06:17:16;;;;;;;0.30;0.30;;;13.90;99.90;;;;;;4989622;28;20209;-82
2022/04/13 06:19:42;;;;;;;0.77;0.77;;;14.00;99.90;;;;;;4989060;28;20183;-82
2022/04/13 06:22:07;;;;;;;0.37;0.37;;;14.10;99.90;;;;;;4988693;28;20435;-82
2022/04/13 06:24:33;;;;;;;0.20;0.20;;;14.10;99.90;;;;;;4990798;28;20190;-82
2022/04/13 06:26:58;;;;;;;0.50;0.50;;;14.30;99.90;;;;;;4990734;28;20266;-82
2022/04/13 06:29:24;;;;;;;0.47;0.37;;;14.30;99.90;;;;;;4990742;28;20188;-82
2022/04/13 06:31:49;;;;;;;0.77;0.30;;;14.40;99.90;;;;;;4987730;28;20225;-82
2022/04/13 06:34:16;;;;;;;0.23;0.23;;;14.40;99.90;;;;;;4988848;28;20329;-85
2022/04/13 06:36:43;;;;;;;0.87;0.47;;;14.50;99.90;;;;;;4985639;28;20204;-81
2022/04/13 06:39:08;;;;;;;0.50;0.40;;;14.60;99.90;;;;;;4989203;28;20194;-82
2022/04/13 06:41:34;;;;;;;1.17;0.70;;;14.60;99.90;;;;;;4990373;28;20666;-81
2022/04/13 06:43:59;;;;;;;0.27;0.27;;;14.80;99.90;;;;;;4988057;28;20234;-81
2022/04/13 06:46:25;;;;;;;0.97;0.53;;;14.80;99.90;;;;;;4987992;28;20763;-81
2022/04/13 06:48:51;;;;;;;1.00;0.63;;;14.90;99.90;;;;;;4990695;28;20194;-81
2022/04/13 06:51:16;;;;;;;1.07;0.50;;;15.00;99.90;;;;;;4989263;28;20229;-81
2022/04/13 06:53:42;;;;;;;0.83;0.67;;;15.00;99.90;;;;;;4992258;28;20190;-81
2022/04/13 06:56:07;;;;;;;1.13;1.13;;;15.00;99.90;;;;;;4993120;28;20219;-82
2022/04/13 06:58:33;;;;;;;0.30;0.30;;;15.10;99.90;;;;;;4991040;28;20507;-81
2022/04/13 07:00:59;;;;;;;0.57;0.57;;;15.30;99.90;;;;;;4990535;28;20183;-81
2022/04/13 07:03:25;;;;;;;0.30;0.30;;;15.20;99.90;;;;;;4988002;28;20591;-81
2022/04/13 07:05:51;;;;;;;0.90;0.90;;;15.20;99.90;;;;;;4989825;28;20791;-82
2022/04/13 07:08:16;;;;;;;0.40;0.40;;;15.30;99.90;;;;;;4988103;28;20221;-81
2022/04/13 07:10:42;;;;;;;0.50;0.50;;;15.40;99.90;;;;;;4991114;28;20560;-82
2022/04/13 07:13:09;;;;;;;1.70;0.90;;;15.60;99.90;;;;;;4989956;28;20223;-82
2022/04/13 07:15:35;;;;;;;0.50;0.40;;;15.70;99.90;;;;;;4991470;28;20206;-82
2022/04/13 07:18:00;;;;;;;0.57;0.47;;;15.80;99.90;;;;;;4989691;28;20214;-82
2022/04/13 07:20:26;;;;;;;2.07;1.07;;;15.90;99.90;;;;;;4992216;28;20203;-82
2022/04/13 07:22:53;;;;;;;0.40;0.40;;;16.00;99.90;;;;;;4989161;28;20191;-83
2022/04/13 07:25:20;;;;;;;0.30;0.30;;;16.00;99.90;;;;;;4991379;28;20185;-82
2022/04/13 07:27:47;;;;;;;0.50;0.50;;;16.10;99.90;;;;;;4990803;28;20218;-82
2022/04/13 07:30:14;;;;;;;0.50;0.50;;;16.20;99.90;;;;;;4986346;28;20201;-82
2022/04/13 07:32:42;;;;;;;0.60;0.30;;;16.40;99.90;;;;;;4987483;28;20210;-81
2022/04/13 07:35:08;;;;;;;0.50;0.50;;;16.50;99.90;;;;;;4987333;28;20207;-82
2022/04/13 07:37:34;;;;;;;0.53;0.53;;;16.50;99.90;;;;;;4988901;28;20602;-82
2022/04/13 07:39:59;;;;;;;0.30;0.30;;;16.90;99.90;;;;;;4989193;28;20186;-82
2022/04/13 07:42:27;;;;;;;1.63;1.53;;;17.20;99.90;;;;;;4989328;28;20191;-82
2022/04/13 07:44:55;;;;;;;2.57;0.50;;;17.50;99.90;;;;;;5005539;28;20640;-82
2022/04/13 07:47:21;;;;;;;0.57;0.57;;;17.80;99.90;;;;;;4989758;28;20220;-82
2022/04/13 07:49:47;;;;;;;0.50;0.40;;;17.70;99.90;;;;;;4990818;28;20686;-82
2022/04/13 07:52:14;;;;;;;0.50;0.50;;;17.90;99.90;;;;;;4989132;28;20957;-81
2022/04/13 07:54:40;;;;;;;0.50;0.50;;;18.30;99.90;;;;;;4993519;28;20191;-82
2022/04/13 07:57:06;;;;;;;0.30;0.30;;;18.60;99.90;;;;;;4992613;28;20215;-82
2022/04/13 07:59:32;;;;;;;0.33;0.33;;;18.80;99.90;;;;;;4989864;28;20196;-86
2022/04/13 08:01:58;;;;;;;1.07;0.90;;;18.70;99.90;;;;;;4987132;28;20214;-84
2022/04/13 08:04:24;;;;;;;0.30;0.30;;;18.20;99.90;;;;;;5002097;28;20188;-84
2022/04/13 08:06:51;;;;;;;1.27;0.70;;;18.10;99.90;;;;;;4990546;28;20294;-85
2022/04/13 08:09:16;;;;;;;0.37;0.33;;;18.20;99.90;;;;;;4987579;28;20222;-84
2022/04/13 08:11:42;;;;;;;0.50;0.50;;;18.50;99.90;;;;;;4987035;28;20293;-84
2022/04/13 08:14:08;;;;;;;2.07;0.60;;;18.70;99.90;;;;;;4985348;28;20199;-84
2022/04/13 08:16:33;;;;;;;2.43;1.00;;;18.80;99.90;;;;;;4989325;28;20800;-84
2022/04/13 08:18:59;;;;;;;0.50;0.50;;;18.90;99.90;;;;;;4986497;28;20556;-84
2022/04/13 08:21:24;;;;;;;1.37;0.50;;;18.90;99.90;;;;;;4987242;28;20192;-84
2022/04/13 08:23:50;;;;;;;0.70;0.70;;;19.10;99.90;;;;;;4985609;28;20283;-85
2022/04/13 08:26:17;;;;;;;0.80;0.80;;;19.50;99.90;;;;;;5001072;28;20333;-84
2022/04/13 08:28:42;;;;;;;2.53;1.40;;;19.60;99.90;;;;;;4987653;28;20184;-84
2022/04/13 08:31:09;;;;;;;1.17;0.37;;;19.90;99.90;;;;;;4984911;28;20198;-85
2022/04/13 08:33:35;;;;;;;1.20;1.10;;;20.10;99.90;;;;;;4985928;28;20220;-84
2022/04/13 08:36:01;;;;;;;0.70;0.70;;;20.30;99.90;;;;;;4984878;28;20873;-82
2022/04/13 08:38:26;;;;;;;2.00;0.77;;;20.30;99.90;;;;;;4988845;28;20188;-82
2022/04/13 08:41:01;;;;;;;0.87;0.73;;;20.30;99.90;;;;;;4990157;28;20713;-82
2022/04/13 08:43:36;;;;;;;0.80;0.80;;;20.40;99.90;;;;;;4989337;28;20334;-82
2022/04/13 08:46:07;;;;;;;1.90;1.80;;;20.30;99.90;;;;;;4986875;28;20263;-82
2022/04/13 08:48:37;;;;;;;1.00;0.77;;;20.40;99.90;;;;;;4997460;28;20245;-82
2022/04/13 08:51:04;;;;;;;1.10;0.73;;;20.40;99.90;;;;;;5001990;28;20198;-82
2022/04/13 08:53:31;;;;;;;0.57;0.57;;;20.50;99.90;;;;;;4982309;28;20589;-83
2022/04/13 08:55:58;;;;;;;1.00;1.00;;;20.50;99.90;;;;;;4988369;28;20202;-81
2022/04/13 08:58:43;;;;;;;0.83;0.83;;;20.50;99.90;;;;;;4988943;28;20219;-82
2022/04/13 09:01:20;;;;;;;1.60;0.63;;;20.60;99.90;;;;;;4988443;28;20206;-82
2022/04/13 09:03:50;;;;;;;1.20;0.97;;;20.60;99.90;;;;;;4989766;28;20187;-82
2022/04/13 09:06:19;;;;;;;0.93;0.53;;;20.80;99.90;;;;;;4987455;28;20288;-82
2022/04/13 09:08:52;;;;;;;1.20;1.10;;;20.90;99.90;;;;;;4988176;28;20199;-81
2022/04/13 09:11:22;;;;;;;0.73;0.70;;;20.90;99.90;;;;;;4987934;28;20209;-81
2022/04/13 09:13:49;;;;;;;0.80;0.80;;;21.00;99.90;;;;;;4987954;28;20190;-81
2022/04/13 09:16:15;;;;;;;0.80;0.80;;;21.10;99.90;;;;;;4988408;28;20203;-81
2022/04/13 09:18:45;;;;;;;1.73;1.40;;;21.00;99.90;;;;;;4987811;28;20199;-82
2022/04/13 09:21:19;;;;;;;0.53;0.40;;;21.10;99.90;;;;;;4987956;28;20203;-81
2022/04/13 09:23:45;;;;;;;0.80;0.80;;;21.20;99.90;;;;;;4983559;28;20210;-82
2022/04/13 09:26:13;;;;;;;0.60;0.60;;;21.10;99.90;;;;;;4985986;28;20209;-81
2022/04/13 09:28:38;;;;;;;1.07;0.77;;;21.00;99.90;;;;;;4988468;28;20191;-81
2022/04/13 09:31:04;;;;;;;0.73;0.73;;;21.40;99.90;;;;;;4985505;28;20198;-82
2022/04/13 09:33:31;;;;;;;0.83;0.83;;;21.30;99.90;;;;;;4987990;28;20211;-81
2022/04/13 09:35:56;;;;;;;0.27;0.27;;;21.50;99.90;;;;;;4988312;28;20272;-81
2022/04/13 09:38:23;;;;;;;1.00;0.87;;;21.60;99.90;;;;;;4987969;28;20281;-82
2022/04/13 09:40:53;;;;;;;1.73;1.63;;;21.90;99.90;;;;;;4987900;28;20274;-82
2022/04/13 09:43:22;;;;;;;0.80;0.80;;;21.90;99.90;;;;;;4985496;28;20195;-81
2022/04/13 09:45:50;;;;;;;2.90;0.53;;;21.90;99.90;;;;;;4988194;28;20180;-82
2022/04/13 09:48:22;;;;;;;0.67;0.67;;;22.10;99.90;;;;;;4986754;28;20215;-81
2022/04/13 09:50:50;;;;;;;0.40;0.40;;;22.20;99.90;;;;;;4986879;28;20283;-82
2022/04/13 09:53:18;;;;;;;3.30;1.13;;;22.40;99.90;;;;;;4985170;28;20742;-82
2022/04/13 09:55:52;;;;;;;1.47;1.00;;;22.50;99.90;;;;;;4986354;28;20183;-82
2022/04/13 09:58:20;;;;;;;1.03;1.03;;;22.60;99.90;;;;;;4987833;28;20183;-81
2022/04/13 10:00:47;;;;;;;1.37;0.80;;;22.60;99.90;;;;;;5003305;28;20188;-84
2022/04/13 10:03:18;;;;;;;0.77;0.60;;;22.70;99.90;;;;;;4985590;28;21234;-84
2022/04/13 10:05:50;;;;;;;0.70;0.67;;;22.70;99.90;;;;;;4987059;28;20244;-84
2022/04/13 10:08:22;;;;;;;0.93;0.93;;;22.90;99.90;;;;;;4985383;28;20328;-84
2022/04/13 10:10:49;;;;;;;0.73;0.73;;;22.70;99.90;;;;;;4984650;28;20191;-84
2022/04/13 10:13:34;;;;;;;1.43;0.50;;;22.50;99.90;;;;;;4983109;28;20302;-85
2022/04/13 10:16:03;;;;;;;0.43;0.43;;;23.00;99.90;;;;;;5001828;28;20227;-84
2022/04/13 10:18:31;;;;;;;0.83;0.50;;;23.40;99.90;;;;;;4986256;28;20617;-83
2022/04/13 10:20:56;;;;;;;1.20;0.90;;;23.30;99.90;;;;;;4986402;28;20536;-84
2022/04/13 10:23:22;;;;;;;3.97;2.17;;;23.20;99.90;;;;;;4985336;28;20206;-84
2022/04/13 10:25:48;;;;;;;0.67;0.67;;;22.90;99.90;;;;;;4986460;28;20195;-84
2022/04/13 10:28:21;;;;;;;0.57;0.57;;;22.90;99.90;;;;;;4986878;28;20218;-84
2022/04/13 10:30:48;;;;;;;1.30;1.13;;;22.90;99.90;;;;;;4999111;28;20283;-84
2022/04/13 10:33:14;;;;;;;0.50;0.50;;;23.00;99.90;;;;;;4989798;28;20210;-84
2022/04/13 10:35:43;;;;;;;0.63;0.60;;;23.00;99.90;;;;;;5004993;28;20207;-83
2022/04/13 10:38:09;;;;;;;0.57;0.40;;;23.20;99.90;;;;;;4988894;28;20222;-83
2022/04/13 10:40:37;;;;;;;3.33;0.50;;;23.20;99.90;;;;;;4989610;28;20192;-83
2022/04/13 10:43:07;;;;;;;1.53;1.00;;;23.50;99.90;;;;;;4989758;28;20201;-83
2022/04/13 10:45:34;;;;;;;1.50;1.03;;;23.20;99.90;;;;;;4988782;28;20531;-84
2022/04/13 10:48:06;;;;;;;0.47;0.40;;;22.60;99.90;;;;;;4988317;28;20714;-83
2022/04/13 10:50:54;;;;;;;1.90;1.67;;;22.60;99.90;;;;;;4988621;28;20282;-84
2022/04/13 10:53:29;;;;;;;0.50;0.50;;;22.10;99.90;;;;;;4990817;28;20239;-83
2022/04/13 10:56:00;;;;;;;1.13;0.70;;;22.40;99.90;;;;;;4990483;28;20180;-83
2022/04/13 10:58:44;;;;;;;1.73;1.63;;;22.90;99.90;;;;;;4987918;28;20215;-84
2022/04/13 11:01:13;;;;;;;0.53;0.53;;;23.10;99.90;;;;;;4998770;28;20278;-83
2022/04/13 11:03:38;;;;;;;0.70;0.70;;;23.40;99.90;;;;;;4989274;28;20196;-83
2022/04/13 11:06:06;;;;;;;1.70;1.20;;;23.70;99.90;;;;;;4989577;28;20787;-83
2022/04/13 11:08:51;;;;;;;2.00;1.53;;;23.40;99.90;;;;;;4989823;28;20326;-83
2022/04/13 11:11:26;;;;;;;0.43;0.43;;;22.50;99.90;;;;;;4990939;28;20838;-83
2022/04/13 11:13:53;;;;;;;1.10;1.00;;;22.70;99.90;;;;;;4991265;28;20215;-83
2022/04/13 11:16:27;;;;;;;1.33;0.80;;;22.70;99.90;;;;;;4990315;28;20214;-85
2022/04/13 11:19:04;;;;;;;1.20;0.80;;;23.00;99.90;;;;;;4990629;28;20183;-84
2022/04/13 11:21:31;;;;;;;1.57;1.47;;;23.60;99.90;;;;;;4990997;28;20330;-84
2022/04/13 11:23:57;;;;;;;1.07;0.80;;;23.60;99.90;;;;;;4990353;28;20176;-84
2022/04/13 11:26:35;;;;;;;3.83;1.90;;;24.00;99.90;;;;;;5006307;28;20214;-83
2022/04/13 11:29:10;;;;;;;0.83;0.73;;;24.10;99.90;;;;;;4990306;28;20195;-84
2022/04/13 11:32:00;;;;;;;3.70;0.77;;;24.30;99.90;;;;;;4982724;28;20693;-84
2022/04/13 11:34:29;;;;;;;3.87;1.33;;;23.60;99.90;;;;;;4987958;28;20222;-84
2022/04/13 11:37:00;;;;;;;0.80;0.50;;;23.50;99.90;;;;;;4988163;28;20672;-84
2022/04/13 11:40:03;;;;;;;1.30;0.57;;;24.10;99.90;;;;;;4986011;28;20192;-84
2022/04/13 11:42:28;;;;;;;1.33;0.97;;;24.50;99.90;;;;;;4987586;28;20199;-84
2022/04/13 11:45:14;;;;;;;0.50;0.50;;;24.70;99.90;;;;;;4987729;28;20541;-83
2022/04/13 11:47:48;;;;;;;0.73;0.73;;;24.20;99.90;;;;;;4988029;28;20650;-84
2022/04/13 11:50:14;;;;;;;0.70;0.70;;;23.50;99.90;;;;;;4988253;28;21219;-84
2022/04/13 11:52:48;;;;;;;0.73;0.73;;;23.20;99.90;;;;;;4980276;28;20213;-84
2022/04/13 11:55:16;;;;;;;0.40;0.40;;;23.20;99.90;;;;;;4990079;28;20201;-84
2022/04/13 11:57:58;;;;;;;1.70;0.70;;;23.40;99.90;;;;;;4988790;28;20210;-83
2022/04/13 12:00:37;;;;;;;0.40;0.40;;;23.40;99.90;;;;;;4987542;28;20283;-84
2022/04/13 12:03:06;;;;;;;0.40;0.40;;;22.70;99.90;;;;;;4991469;28;20212;-81
2022/04/13 12:05:34;;;;;;;0.40;0.40;;;22.70;99.90;;;;;;4989991;28;20184;-81
2022/04/13 12:08:00;;;;;;;0.93;0.93;;;22.60;99.90;;;;;;4988227;28;20219;-84
2022/04/13 12:10:26;;;;;;;0.70;0.37;;;22.70;99.90;;;;;;4988641;28;20191;-83
2022/04/13 12:12:55;;;;;;;0.20;0.20;;;23.10;99.90;;;;;;4989366;28;20234;-81
2022/04/13 12:15:21;;;;;;;0.53;0.53;;;23.40;99.90;;;;;;4989189;28;20192;-82
2022/04/13 12:17:47;;;;;;;0.80;0.80;;;23.70;99.90;;;;;;4990252;28;20214;-82
2022/04/13 12:20:28;;;;;;;1.03;0.40;;;24.00;99.90;;;;;;4988937;28;20206;-82
2022/04/13 12:22:54;;;;;;;0.40;0.40;;;24.40;99.90;;;;;;4990512;28;20210;-82
2022/04/13 12:25:20;;;;;;;1.83;1.63;;;25.00;99.90;;;;;;4989941;28;20664;-82
2022/04/13 12:28:05;;;;;;;0.50;0.50;;;25.20;99.90;;;;;;4988538;28;20275;-81
2022/04/13 12:30:31;;;;;;;0.53;0.50;;;25.30;99.90;;;;;;4987960;28;20188;-82
2022/04/13 12:32:56;;;;;;;0.40;0.40;;;25.40;99.90;;;;;;4990337;28;20215;-82
2022/04/13 12:35:22;;;;;;;0.50;0.30;;;25.10;99.90;;;;;;4988514;28;20204;-82
2022/04/13 12:37:53;;;;;;;0.30;0.30;;;25.30;99.90;;;;;;4991318;28;20208;-82
2022/04/13 12:40:22;;;;;;;0.73;0.53;;;25.30;99.90;;;;;;4989855;28;20191;-82
2022/04/13 12:42:48;;;;;;;0.80;0.80;;;25.10;99.90;;;;;;4991174;28;20192;-81
2022/04/13 12:45:14;;;;;;;1.50;1.40;;;25.50;99.90;;;;;;4988060;28;20266;-81
2022/04/13 12:47:47;;;;;;;0.57;0.57;;;25.10;99.90;;;;;;4989701;28;20219;-81
2022/04/13 12:50:13;;;;;;;0.53;0.53;;;25.00;99.90;;;;;;4999237;28;20543;-81